Time;durP1;ratioP1;P1;durP2;ratioP2;P2;SDS_P1;SDS_P2;PMS_P1;PMS_P2;Temp;Humidity;BMP_temperature;BMP_pressure;BME280_temperature;BME280_humidity;BME280_pressure;Samples;Min_cycle;Max_cycle;Signal;HPM_P1;HPM_P2
2021/06/16 06:09:20;;;;;;;13.73;12.55;;;18.50;67.50;;;;;;4998060;29;20060;-71
2021/06/16 06:11:52;;;;;;;14.40;13.00;;;18.60;67.00;;;;;;5012067;29;20128;-69
2021/06/16 06:16:50;;;;;;;15.07;13.68;;;18.70;66.60;;;;;;5263125;27;81818;-68
2021/06/16 06:19:22;;;;;;;14.25;13.15;;;19.00;67.30;;;;;;5266716;28;20182;-67
2021/06/16 06:21:54;;;;;;;14.40;13.30;;;19.10;65.40;;;;;;5273885;27;20177;-69
2021/06/16 06:24:26;;;;;;;14.55;13.35;;;19.20;64.40;;;;;;5277166;28;20109;-67
2021/06/16 06:26:58;;;;;;;15.02;13.73;;;19.40;65.50;;;;;;5275001;28;20131;-69
2021/06/16 06:29:29;;;;;;;14.70;13.50;;;19.50;65.60;;;;;;5275914;28;20122;-68
2021/06/16 06:32:03;;;;;;;14.35;13.05;;;19.60;65.50;;;;;;5276847;28;20065;-69
2021/06/16 06:34:35;;;;;;;14.07;12.88;;;19.80;64.20;;;;;;5277468;28;20040;-68
2021/06/16 06:37:07;;;;;;;13.77;12.65;;;19.80;62.00;;;;;;5274894;28;20089;-69
2021/06/16 06:39:41;;;;;;;13.30;12.30;;;20.00;61.00;;;;;;5275494;28;20063;-69
2021/06/16 06:42:15;;;;;;;13.55;12.45;;;20.10;61.60;;;;;;5275889;28;20040;-68
2021/06/16 06:44:49;;;;;;;13.90;12.80;;;20.20;62.80;;;;;;5278710;28;20052;-68
2021/06/16 06:47:26;;;;;;;13.68;12.57;;;20.30;63.50;;;;;;5276512;28;20044;-69
2021/06/16 06:49:58;;;;;;;14.38;13.00;;;20.40;63.90;;;;;;5276408;28;20032;-68
2021/06/16 06:52:30;;;;;;;14.90;13.40;;;20.50;62.80;;;;;;5276960;28;20426;-69
2021/06/16 06:55:02;;;;;;;14.55;13.13;;;20.60;62.30;;;;;;5277241;28;20560;-69
2021/06/16 06:57:35;;;;;;;14.52;13.25;;;20.70;62.30;;;;;;5274775;28;20032;-70
2021/06/16 07:00:09;;;;;;;13.85;12.50;;;20.80;61.10;;;;;;5276552;28;20073;-71
2021/06/16 07:02:46;;;;;;;13.80;12.60;;;20.90;60.90;;;;;;5276807;28;20067;-70
2021/06/16 07:05:18;;;;;;;13.75;12.65;;;21.00;61.10;;;;;;5276389;28;20048;-68
2021/06/16 07:07:49;;;;;;;13.93;12.63;;;21.10;61.50;;;;;;5274534;28;20112;-69
2021/06/16 07:10:21;;;;;;;13.60;12.48;;;21.30;60.20;;;;;;5273779;28;20646;-70
2021/06/16 07:12:53;;;;;;;13.52;12.35;;;21.40;57.70;;;;;;5277208;28;20082;-68
2021/06/16 07:15:25;;;;;;;13.98;12.52;;;21.50;59.50;;;;;;5275803;27;20043;-68
2021/06/16 07:17:58;;;;;;;13.98;12.88;;;21.60;59.70;;;;;;5276582;28;20562;-68
2021/06/16 07:20:31;;;;;;;14.18;12.95;;;21.80;58.60;;;;;;5276723;27;20685;-68
2021/06/16 07:23:03;;;;;;;14.23;12.90;;;21.90;58.80;;;;;;5276637;28;20089;-68
2021/06/16 07:25:35;;;;;;;13.80;12.60;;;22.00;57.20;;;;;;5276563;28;20060;-68
2021/06/16 07:28:07;;;;;;;14.07;12.90;;;22.10;55.80;;;;;;5262091;28;20085;-69
2021/06/16 07:30:38;;;;;;;13.75;12.65;;;22.10;58.90;;;;;;5261931;28;20764;-68
2021/06/16 07:33:10;;;;;;;14.05;12.95;;;22.30;55.30;;;;;;5262576;28;20040;-69
2021/06/16 07:35:44;;;;;;;13.70;12.70;;;22.40;57.20;;;;;;5259867;28;20040;-68
2021/06/16 07:38:16;;;;;;;14.07;13.02;;;22.50;55.10;;;;;;5262354;28;20565;-68
2021/06/16 07:40:48;;;;;;;14.10;12.95;;;22.60;56.20;;;;;;5262070;28;20067;-68
2021/06/16 07:43:20;;;;;;;14.23;13.13;;;22.70;55.30;;;;;;5261483;28;20046;-68
2021/06/16 07:45:52;;;;;;;13.88;12.60;;;22.70;54.10;;;;;;5260869;28;20108;-67
2021/06/16 07:48:24;;;;;;;14.27;12.98;;;22.80;53.60;;;;;;5261968;28;20535;-68
2021/06/16 07:50:56;;;;;;;14.25;13.18;;;22.80;50.60;;;;;;5261349;28;20131;-68
2021/06/16 07:53:28;;;;;;;14.48;13.38;;;22.90;52.70;;;;;;5260622;28;20036;-68
2021/06/16 07:56:00;;;;;;;14.75;13.30;;;22.90;48.10;;;;;;5261631;28;20056;-68
2021/06/16 07:58:32;;;;;;;14.35;13.15;;;23.00;51.60;;;;;;5276170;28;20066;-68
2021/06/16 08:01:04;;;;;;;13.88;12.88;;;23.10;45.90;;;;;;5259393;28;20048;-67
2021/06/16 08:03:36;;;;;;;14.48;13.38;;;23.20;49.30;;;;;;5260428;28;20077;-68
2021/06/16 08:06:08;;;;;;;14.15;13.15;;;23.30;47.90;;;;;;5260166;28;20597;-68
2021/06/16 08:08:40;;;;;;;13.95;12.82;;;23.40;50.50;;;;;;5261832;28;20075;-67
2021/06/16 08:11:12;;;;;;;14.68;13.57;;;23.50;50.00;;;;;;5262366;28;20121;-67
2021/06/16 08:13:43;;;;;;;14.48;13.18;;;23.60;51.40;;;;;;5261046;28;20125;-67
2021/06/16 08:16:18;;;;;;;14.32;13.13;;;23.70;51.00;;;;;;5260855;28;20592;-68
2021/06/16 08:18:51;;;;;;;13.77;12.73;;;23.70;51.60;;;;;;5258715;28;20044;-68
2021/06/16 08:21:23;;;;;;;14.10;12.88;;;23.80;49.30;;;;;;5258351;28;20433;-69
2021/06/16 08:23:55;;;;;;;13.95;12.90;;;23.80;50.30;;;;;;5260683;28;20065;-69
2021/06/16 08:26:27;;;;;;;14.05;12.95;;;23.90;49.90;;;;;;5258844;28;20122;-68
2021/06/16 08:28:59;;;;;;;13.35;12.35;;;24.00;45.80;;;;;;5259352;28;20512;-69
2021/06/16 08:31:31;;;;;;;14.25;13.15;;;24.10;43.20;;;;;;5258805;28;20074;-69
2021/06/16 08:34:03;;;;;;;14.13;13.02;;;24.20;48.10;;;;;;5250988;28;20122;-68
2021/06/16 08:36:36;;;;;;;14.27;13.05;;;24.30;51.00;;;;;;5258719;28;20143;-68
2021/06/16 08:39:23;;;;;;;14.63;13.32;;;24.30;50.30;;;;;;5258508;28;20055;-69
2021/06/16 08:41:55;;;;;;;13.85;12.65;;;24.40;49.80;;;;;;5258698;28;20048;-69
2021/06/16 08:44:27;;;;;;;14.10;12.90;;;24.50;51.50;;;;;;5259967;28;20036;-69
2021/06/16 08:47:00;;;;;;;14.25;12.98;;;24.50;50.30;;;;;;5256978;28;20097;-68
2021/06/16 08:49:32;;;;;;;14.25;13.15;;;24.60;50.00;;;;;;5260614;28;20044;-69
2021/06/16 08:52:04;;;;;;;14.18;13.02;;;24.60;49.40;;;;;;5259816;28;20048;-69
2021/06/16 08:54:37;;;;;;;14.38;13.18;;;24.60;50.40;;;;;;5258251;28;21541;-69
2021/06/16 08:57:09;;;;;;;14.55;13.18;;;24.70;51.90;;;;;;5274355;28;20148;-69
2021/06/16 08:59:41;;;;;;;14.15;12.85;;;24.80;52.20;;;;;;5259625;28;20447;-68
2021/06/16 09:02:13;;;;;;;14.75;13.52;;;24.80;50.70;;;;;;5253026;28;20204;-69
2021/06/16 09:04:51;;;;;;;14.63;13.32;;;24.90;50.60;;;;;;5259224;28;20048;-70
2021/06/16 09:07:30;;;;;;;14.90;13.43;;;24.90;52.10;;;;;;5240025;28;20083;-69
2021/06/16 09:10:08;;;;;;;14.32;13.13;;;25.00;51.80;;;;;;5258382;28;20044;-65
2021/06/16 09:12:54;;;;;;;14.65;13.50;;;25.00;49.20;;;;;;5259521;28;20044;-69
2021/06/16 09:15:29;;;;;;;14.18;12.98;;;25.00;47.90;;;;;;5257596;28;20125;-71
2021/06/16 09:18:09;;;;;;;14.60;13.32;;;25.10;45.20;;;;;;5257433;28;20062;-71
2021/06/16 09:20:45;;;;;;;13.50;12.50;;;25.20;48.10;;;;;;5258449;28;20071;-69
2021/06/16 09:23:28;;;;;;;14.27;13.27;;;25.30;44.40;;;;;;5259886;28;20036;-69
2021/06/16 09:26:15;;;;;;;14.05;13.05;;;25.40;46.40;;;;;;5258131;28;20047;-70
2021/06/16 09:28:50;;;;;;;13.70;12.65;;;25.40;41.10;;;;;;5261757;28;20044;-71
2021/06/16 09:31:23;;;;;;;14.45;13.25;;;25.50;44.40;;;;;;5256611;28;20051;-70
2021/06/16 09:33:55;;;;;;;14.30;13.23;;;25.60;45.60;;;;;;5261367;28;20044;-70
2021/06/16 09:36:27;;;;;;;14.45;13.10;;;25.70;47.10;;;;;;5252355;28;20041;-69
2021/06/16 09:39:08;;;;;;;15.40;13.30;;;25.70;46.40;;;;;;5237591;28;20042;-67
2021/06/16 09:42:00;;;;;;;14.63;13.27;;;25.70;45.80;;;;;;5251101;28;20098;-68
2021/06/16 09:44:40;;;;;;;14.40;13.20;;;25.80;46.70;;;;;;5258093;28;20115;-70
2021/06/16 09:47:15;;;;;;;14.30;13.10;;;25.90;46.90;;;;;;5258264;28;20094;-71
2021/06/16 09:49:52;;;;;;;15.00;13.45;;;25.90;45.50;;;;;;5259188;28;20036;-68
2021/06/16 09:52:32;;;;;;;14.05;12.95;;;26.00;45.90;;;;;;5257284;28;20086;-69
2021/06/16 09:55:22;;;;;;;14.20;12.95;;;26.10;44.00;;;;;;5258497;28;20064;-69
2021/06/16 09:58:08;;;;;;;14.55;13.35;;;26.10;45.10;;;;;;5259018;28;20044;-69
2021/06/16 10:00:49;;;;;;;14.38;13.27;;;26.20;44.30;;;;;;5256348;28;20072;-68
2021/06/16 10:03:23;;;;;;;15.10;14.00;;;26.30;46.50;;;;;;5257055;28;20082;-69
2021/06/16 10:06:14;;;;;;;15.20;14.07;;;26.40;45.60;;;;;;5260023;28;20158;-68
2021/06/16 10:08:52;;;;;;;15.50;13.88;;;26.50;43.90;;;;;;5255851;28;20054;-68
2021/06/16 10:11:26;;;;;;;14.77;13.57;;;26.50;43.80;;;;;;5256553;28;20070;-69
2021/06/16 10:13:59;;;;;;;15.30;14.15;;;26.60;44.40;;;;;;5257189;28;20032;-69
2021/06/16 10:16:30;;;;;;;15.00;13.90;;;26.70;45.80;;;;;;5257369;28;20048;-68
2021/06/16 10:19:03;;;;;;;14.85;13.65;;;26.70;42.10;;;;;;5257578;28;20044;-69
2021/06/16 10:21:35;;;;;;;14.52;13.38;;;26.80;41.10;;;;;;5254577;28;20079;-69
2021/06/16 10:24:07;;;;;;;14.70;13.60;;;26.80;40.60;;;;;;5255290;28;20040;-69
2021/06/16 10:26:40;;;;;;;14.73;13.50;;;26.70;39.40;;;;;;5257937;28;20135;-68
2021/06/16 10:29:15;;;;;;;15.35;14.15;;;26.80;39.50;;;;;;5257822;28;20650;-70
2021/06/16 10:32:06;;;;;;;15.15;14.05;;;26.80;39.30;;;;;;5257958;28;20075;-70
2021/06/16 10:34:52;;;;;;;15.15;13.80;;;26.80;39.70;;;;;;5257679;28;20113;-69
2021/06/16 10:37:29;;;;;;;14.85;13.48;;;26.90;41.40;;;;;;5257390;28;20048;-69
2021/06/16 10:40:23;;;;;;;15.20;14.00;;;27.00;45.30;;;;;;5256592;28;20098;-70
2021/06/16 10:42:58;;;;;;;14.65;13.55;;;27.10;42.90;;;;;;5256729;28;20552;-70
2021/06/16 10:45:34;;;;;;;14.90;13.80;;;27.10;43.00;;;;;;5258533;28;20508;-69
2021/06/16 10:48:08;;;;;;;14.73;13.57;;;27.20;41.50;;;;;;5256831;28;20040;-69
2021/06/16 10:50:46;;;;;;;14.73;13.65;;;27.20;40.50;;;;;;5257352;28;20140;-69
2021/06/16 10:53:21;;;;;;;15.57;14.38;;;27.30;44.10;;;;;;5254461;28;20432;-68
2021/06/16 10:55:53;;;;;;;14.93;13.80;;;27.30;43.20;;;;;;5257443;28;20169;-70
2021/06/16 10:58:26;;;;;;;15.38;14.18;;;27.40;42.10;;;;;;5259155;28;20148;-69
2021/06/16 11:01:07;;;;;;;15.32;14.02;;;27.50;42.50;;;;;;5259264;28;20064;-71
2021/06/16 11:04:02;;;;;;;14.63;13.52;;;27.50;41.80;;;;;;5261044;28;20032;-68
2021/06/16 11:06:34;;;;;;;14.80;13.60;;;27.50;39.80;;;;;;5260913;28;20090;-69
2021/06/16 11:09:08;;;;;;;14.20;13.20;;;27.50;40.70;;;;;;5251186;28;20043;-69
2021/06/16 11:11:46;;;;;;;14.98;13.80;;;27.60;41.40;;;;;;5260653;28;20052;-68
2021/06/16 11:14:36;;;;;;;15.00;13.90;;;27.70;40.00;;;;;;5261361;28;20447;-67
2021/06/16 11:17:34;;;;;;;14.73;13.52;;;27.70;40.90;;;;;;5254585;28;20562;-69
2021/06/16 11:20:12;;;;;;;15.00;13.82;;;27.80;38.50;;;;;;5260120;28;20457;-69
2021/06/16 11:22:52;;;;;;;15.00;13.90;;;27.80;37.30;;;;;;5263519;28;20139;-70
2021/06/16 11:25:29;;;;;;;15.68;14.40;;;27.80;35.80;;;;;;5256722;28;20036;-70
2021/06/16 11:28:36;;;;;;;14.85;13.68;;;27.90;36.00;;;;;;5261164;28;20044;-68
2021/06/16 11:31:10;;;;;;;14.70;13.65;;;28.00;37.60;;;;;;5260119;28;20127;-70
2021/06/16 11:33:46;;;;;;;15.07;13.98;;;28.00;36.80;;;;;;5262105;28;20047;-69
2021/06/16 11:36:27;;;;;;;15.23;14.02;;;28.00;36.80;;;;;;5259358;28;20051;-70
2021/06/16 11:39:21;;;;;;;15.02;13.85;;;28.20;36.30;;;;;;5544476;22;20057;-71
2021/06/16 11:41:53;;;;;;;15.20;14.10;;;28.20;35.50;;;;;;5172070;28;20411;-71
2021/06/16 11:44:25;;;;;;;15.00;13.90;;;28.30;36.00;;;;;;5168868;28;20124;-70
2021/06/16 11:46:58;;;;;;;16.17;14.77;;;28.30;35.60;;;;;;5172004;28;20049;-70
2021/06/16 11:49:32;;;;;;;16.05;14.65;;;28.30;36.60;;;;;;5189434;28;20469;-70
2021/06/16 11:52:04;;;;;;;386.75;44.33;;;28.40;34.70;;;;;;5173308;28;20041;-71
2021/06/16 11:54:38;;;;;;;16.75;14.45;;;28.40;34.50;;;;;;5191365;28;20168;-68
2021/06/16 11:57:13;;;;;;;14.80;13.70;;;28.40;36.00;;;;;;5187955;28;20042;-68
2021/06/16 11:59:52;;;;;;;15.20;13.95;;;28.50;35.90;;;;;;5174371;28;20041;-72
2021/06/16 12:02:26;;;;;;;14.65;13.55;;;28.50;37.00;;;;;;5163432;28;20041;-70
2021/06/16 12:05:05;;;;;;;14.95;13.85;;;28.50;34.00;;;;;;5173640;28;20380;-72
2021/06/16 12:07:48;;;;;;;14.77;13.63;;;28.60;33.60;;;;;;5188450;28;20049;-71
2021/06/16 12:10:25;;;;;;;15.13;13.88;;;28.60;33.40;;;;;;5188185;28;20038;-72
2021/06/16 12:13:00;;;;;;;14.75;13.68;;;28.70;34.40;;;;;;5170667;28;20517;-72
2021/06/16 12:15:37;;;;;;;15.32;14.05;;;28.70;34.60;;;;;;5188564;28;20065;-71
2021/06/16 12:18:14;;;;;;;15.98;14.60;;;28.70;33.80;;;;;;5186661;28;20434;-72
2021/06/16 12:20:55;;;;;;;15.63;14.32;;;28.70;33.70;;;;;;5187494;28;20339;-71
2021/06/16 12:23:39;;;;;;;15.60;14.40;;;28.80;32.70;;;;;;5189251;28;20119;-72
2021/06/16 12:26:24;;;;;;;15.88;14.68;;;29.00;34.10;;;;;;5189513;28;20052;-72
2021/06/16 12:28:57;;;;;;;15.60;14.50;;;29.10;35.80;;;;;;5190339;28;20139;-71
2021/06/16 12:31:35;;;;;;;15.57;14.48;;;29.20;31.90;;;;;;5189715;28;20088;-73
2021/06/16 12:34:31;;;;;;;15.80;14.43;;;29.20;31.90;;;;;;5175520;28;20120;-72
2021/06/16 12:37:05;;;;;;;16.85;15.27;;;29.30;33.00;;;;;;5170590;28;20073;-72
2021/06/16 12:39:58;;;;;;;15.73;14.63;;;29.50;36.00;;;;;;5188704;28;20060;-71
2021/06/16 12:42:42;;;;;;;15.88;14.77;;;29.50;32.70;;;;;;5185895;28;20045;-71
2021/06/16 12:45:32;;;;;;;15.90;14.55;;;29.50;32.20;;;;;;5170591;28;20095;-73
2021/06/16 12:48:16;;;;;;;15.50;14.30;;;29.60;34.30;;;;;;5188313;28;20041;-72
2021/06/16 12:50:59;;;;;;;15.77;14.48;;;29.60;35.00;;;;;;5188389;28;20042;-72
2021/06/16 12:53:39;;;;;;;15.77;14.48;;;29.70;33.40;;;;;;5188874;28;20111;-73
2021/06/16 12:56:16;;;;;;;15.82;14.50;;;29.70;32.10;;;;;;5186175;28;20091;-72
2021/06/16 12:58:48;;;;;;;15.57;14.48;;;29.70;31.70;;;;;;5190130;28;20132;-73
2021/06/16 13:01:20;;;;;;;16.08;14.88;;;29.70;33.00;;;;;;5187205;28;20070;-73
2021/06/16 13:03:53;;;;;;;15.90;14.70;;;29.70;32.00;;;;;;5189395;28;20041;-74
2021/06/16 13:06:28;;;;;;;16.38;14.65;;;29.70;30.10;;;;;;5187876;28;20050;-72
2021/06/16 13:09:01;;;;;;;15.85;14.60;;;29.70;32.20;;;;;;5187681;28;20041;-73
2021/06/16 13:11:33;;;;;;;15.40;14.30;;;29.80;32.50;;;;;;5184522;28;20104;-73
2021/06/16 13:14:27;;;;;;;16.00;14.80;;;29.90;31.60;;;;;;5188839;28;20119;-73
2021/06/16 13:17:04;;;;;;;15.75;14.55;;;29.90;32.40;;;;;;5167028;28;20164;-74
2021/06/16 13:19:55;;;;;;;15.32;14.23;;;29.90;32.20;;;;;;5161371;28;20045;-73
2021/06/16 13:22:35;;;;;;;15.82;14.52;;;30.00;31.30;;;;;;5186651;28;20050;-72
2021/06/16 13:25:10;;;;;;;15.65;14.45;;;30.10;32.40;;;;;;5187586;28;20435;-73
2021/06/16 13:28:02;;;;;;;16.08;14.77;;;30.20;30.30;;;;;;5189393;28;20081;-74
2021/06/16 13:30:39;;;;;;;15.85;14.65;;;30.20;30.40;;;;;;5185271;28;20054;-74
2021/06/16 13:33:12;;;;;;;15.75;14.55;;;30.20;31.00;;;;;;5189462;28;20580;-74
2021/06/16 13:35:43;;;;;;;15.80;14.57;;;30.30;30.80;;;;;;5186857;28;20056;-74
2021/06/16 13:38:15;;;;;;;15.88;14.57;;;30.30;31.40;;;;;;5168804;28;20095;-75
2021/06/16 13:40:47;;;;;;;16.17;14.93;;;30.30;30.20;;;;;;5190009;28;20069;-75
2021/06/16 13:43:19;;;;;;;15.85;14.73;;;30.30;29.90;;;;;;5189687;28;20128;-74
2021/06/16 13:45:52;;;;;;;15.77;14.38;;;30.40;30.10;;;;;;5161487;28;20048;-76
2021/06/16 13:48:24;;;;;;;15.63;14.50;;;30.40;29.40;;;;;;5173918;28;20049;-76
2021/06/16 13:50:56;;;;;;;15.50;14.40;;;30.40;29.50;;;;;;5187021;28;20469;-75
2021/06/16 13:53:28;;;;;;;15.75;14.65;;;30.40;29.90;;;;;;5188735;28;20103;-75
2021/06/16 13:56:01;;;;;;;15.48;14.38;;;30.40;28.50;;;;;;5184044;28;20049;-73
2021/06/16 13:58:34;;;;;;;15.65;14.55;;;30.40;28.80;;;;;;5186579;28;20091;-74
2021/06/16 14:01:06;;;;;;;16.23;14.82;;;30.40;29.30;;;;;;5160606;28;20056;-73
2021/06/16 14:03:39;;;;;;;16.45;15.25;;;30.50;30.00;;;;;;5189358;28;20069;-74
2021/06/16 14:06:12;;;;;;;16.40;15.20;;;30.60;30.80;;;;;;5188283;28;20207;-74
2021/06/16 14:08:44;;;;;;;16.10;14.68;;;30.70;29.70;;;;;;5190137;28;20419;-73
2021/06/16 14:11:16;;;;;;;16.67;15.27;;;30.80;28.30;;;;;;5171126;28;20163;-73
2021/06/16 14:13:52;;;;;;;16.17;15.07;;;30.80;29.70;;;;;;5184373;28;20129;-73
2021/06/16 14:16:24;;;;;;;16.23;15.02;;;31.00;28.60;;;;;;5189238;28;20104;-76
2021/06/16 14:18:56;;;;;;;16.50;15.20;;;31.00;29.30;;;;;;5189339;28;20648;-75
2021/06/16 14:21:28;;;;;;;16.30;15.02;;;31.10;29.80;;;;;;5185920;28;20128;-75
2021/06/16 14:24:00;;;;;;;16.70;15.40;;;31.20;29.50;;;;;;5188755;28;20050;-73
2021/06/16 14:26:32;;;;;;;16.75;15.45;;;31.30;31.00;;;;;;5187996;28;20129;-70
2021/06/16 14:29:04;;;;;;;16.17;14.93;;;31.40;30.00;;;;;;5189100;28;20061;-71
2021/06/16 14:31:37;;;;;;;16.58;15.38;;;31.40;29.30;;;;;;5185092;28;20050;-70
2021/06/16 14:34:09;;;;;;;16.90;15.38;;;31.50;29.70;;;;;;5187482;28;20140;-71
2021/06/16 14:36:41;;;;;;;16.30;15.10;;;31.50;28.00;;;;;;5169548;28;20517;-70
2021/06/16 14:39:17;;;;;;;16.60;15.30;;;31.40;28.90;;;;;;5189397;28;20037;-69
2021/06/16 14:41:49;;;;;;;15.90;14.80;;;31.50;29.40;;;;;;5180698;28;20079;-72
2021/06/16 14:44:21;;;;;;;16.17;15.05;;;31.60;32.10;;;;;;5175317;28;20062;-69
2021/06/16 14:46:53;;;;;;;16.77;15.57;;;31.70;32.60;;;;;;5189859;28;20074;-69
2021/06/16 14:49:25;;;;;;;15.70;14.60;;;31.70;30.60;;;;;;5176835;28;20050;-69
2021/06/16 14:51:57;;;;;;;16.73;15.20;;;31.80;32.20;;;;;;5190344;28;20767;-68
2021/06/16 14:54:29;;;;;;;16.02;14.77;;;31.80;29.40;;;;;;5191374;28;20510;-69
2021/06/16 14:57:01;;;;;;;15.75;14.55;;;31.60;29.30;;;;;;5185282;28;20056;-69
2021/06/16 14:59:33;;;;;;;16.35;15.05;;;31.60;30.50;;;;;;5190723;28;20185;-70
2021/06/16 15:02:05;;;;;;;16.65;15.45;;;31.50;30.00;;;;;;5189585;28;20046;-71
2021/06/16 15:04:41;;;;;;;16.73;15.43;;;31.50;31.20;;;;;;5192747;28;20092;-68
2021/06/16 15:07:13;;;;;;;16.88;15.68;;;31.50;29.10;;;;;;5187558;28;20052;-71
2021/06/16 15:09:45;;;;;;;17.27;15.98;;;31.50;30.10;;;;;;5190584;28;20041;-71
2021/06/16 15:12:18;;;;;;;17.45;16.10;;;31.60;31.20;;;;;;5189035;28;20049;-73
2021/06/16 15:14:50;;;;;;;17.50;16.17;;;31.60;32.00;;;;;;5190196;28;20034;-72
2021/06/16 15:17:23;;;;;;;16.67;15.48;;;31.60;31.20;;;;;;5176533;28;21384;-70
2021/06/16 15:19:55;;;;;;;16.95;15.75;;;31.70;30.30;;;;;;5189374;28;20045;-70
2021/06/16 15:22:27;;;;;;;17.30;16.00;;;31.90;32.20;;;;;;5190030;28;20519;-70
2021/06/16 15:24:59;;;;;;;17.85;16.40;;;32.00;32.80;;;;;;5188999;28;20073;-71
2021/06/16 15:27:31;;;;;;;17.35;16.15;;;32.10;31.70;;;;;;5190113;28;20042;-70
2021/06/16 15:30:06;;;;;;;17.67;16.38;;;32.10;30.60;;;;;;5188343;28;20069;-70
2021/06/16 15:32:38;;;;;;;17.50;16.20;;;32.10;32.10;;;;;;5189748;28;20045;-72
2021/06/16 15:35:11;;;;;;;17.67;16.27;;;32.10;32.50;;;;;;5189172;28;20137;-71
2021/06/16 15:37:43;;;;;;;17.60;16.15;;;32.10;30.40;;;;;;5189157;28;20076;-71
2021/06/16 15:40:16;;;;;;;17.55;16.25;;;32.00;30.30;;;;;;5191832;28;20116;-71
2021/06/16 15:42:48;;;;;;;17.35;16.05;;;32.00;33.70;;;;;;5188943;28;20066;-70
2021/06/16 15:45:20;;;;;;;17.60;16.25;;;32.00;32.30;;;;;;5189521;28;20045;-73
2021/06/16 15:47:52;;;;;;;17.30;16.00;;;32.00;31.00;;;;;;5190659;28;20131;-74
2021/06/16 15:50:25;;;;;;;17.65;16.25;;;32.00;31.30;;;;;;5189060;28;20065;-73
2021/06/16 15:52:58;;;;;;;18.13;16.50;;;32.00;30.80;;;;;;5187616;28;20116;-73
2021/06/16 15:55:30;;;;;;;17.45;16.25;;;32.10;30.20;;;;;;5177308;28;20052;-72
2021/06/16 15:58:03;;;;;;;18.00;16.75;;;32.30;30.00;;;;;;5188644;28;20034;-71
2021/06/16 16:00:35;;;;;;;17.50;16.20;;;32.40;30.10;;;;;;5188170;28;20058;-72
2021/06/16 16:03:11;;;;;;;17.63;16.23;;;32.70;30.10;;;;;;5189407;28;20041;-72
2021/06/16 16:05:43;;;;;;;17.35;16.15;;;32.80;30.50;;;;;;5183552;28;20045;-72
2021/06/16 16:08:16;;;;;;;17.20;16.00;;;33.00;30.50;;;;;;5167488;28;20768;-72
2021/06/16 16:10:48;;;;;;;17.23;16.02;;;33.10;28.60;;;;;;5190828;28;20473;-72
2021/06/16 16:13:20;;;;;;;17.17;15.88;;;33.20;28.40;;;;;;5182762;28;20108;-73
2021/06/16 16:15:51;;;;;;;17.85;16.45;;;33.20;28.00;;;;;;5188025;28;20045;-72
2021/06/16 16:18:24;;;;;;;17.52;16.23;;;33.20;27.60;;;;;;5188816;28;20049;-72
2021/06/16 16:20:56;;;;;;;17.95;16.65;;;33.20;29.10;;;;;;5186916;28;20096;-71
2021/06/16 16:23:28;;;;;;;17.55;16.25;;;33.20;29.00;;;;;;5175631;28;20080;-71
2021/06/16 16:26:00;;;;;;;17.63;16.27;;;33.30;29.20;;;;;;5187688;28;20624;-71
2021/06/16 16:28:32;;;;;;;17.60;16.38;;;33.30;30.40;;;;;;5190469;28;20103;-71
2021/06/16 16:31:04;;;;;;;18.10;16.70;;;33.30;28.40;;;;;;5188785;28;20120;-71
2021/06/16 16:33:36;;;;;;;18.77;17.38;;;33.40;28.00;;;;;;5189990;28;20565;-72
2021/06/16 16:36:08;;;;;;;18.13;16.83;;;33.70;29.00;;;;;;5189711;28;20098;-71
2021/06/16 16:38:41;;;;;;;17.95;16.65;;;33.90;28.90;;;;;;5189670;28;20132;-73
2021/06/16 16:41:13;;;;;;;18.27;16.80;;;33.80;28.60;;;;;;5180855;28;20066;-71
2021/06/16 16:43:45;;;;;;;17.92;16.63;;;33.70;27.50;;;;;;5190602;28;20041;-72
2021/06/16 16:46:17;;;;;;;18.30;16.85;;;33.20;28.50;;;;;;5186038;28;20076;-71
2021/06/16 16:48:50;;;;;;;18.70;17.20;;;33.40;29.70;;;;;;5186110;28;20053;-73
2021/06/16 16:51:22;;;;;;;18.30;16.75;;;33.50;28.40;;;;;;5188573;28;20056;-72
2021/06/16 16:53:54;;;;;;;18.70;17.05;;;33.10;28.80;;;;;;5190440;28;20042;-72
2021/06/16 16:56:26;;;;;;;18.40;17.00;;;32.90;28.90;;;;;;5171862;28;20732;-72
2021/06/16 16:58:58;;;;;;;18.50;17.10;;;32.70;29.00;;;;;;5186882;28;20117;-72
2021/06/16 17:01:30;;;;;;;18.38;17.08;;;32.40;28.50;;;;;;5187804;28;20042;-72
2021/06/16 17:04:02;;;;;;;18.80;17.30;;;31.60;28.90;;;;;;5188128;28;20066;-71
2021/06/16 17:06:34;;;;;;;18.45;17.00;;;31.20;30.40;;;;;;5188598;28;20038;-72
2021/06/16 17:09:06;;;;;;;18.35;17.05;;;31.00;31.90;;;;;;5184786;28;20223;-71
2021/06/16 17:11:38;;;;;;;17.80;16.30;;;30.70;32.70;;;;;;5186301;28;20057;-72
2021/06/16 17:14:10;;;;;;;18.17;16.77;;;30.50;33.10;;;;;;5170500;28;20155;-72
2021/06/16 17:16:42;;;;;;;17.65;16.27;;;30.30;31.60;;;;;;5185756;28;20184;-72
2021/06/16 17:19:14;;;;;;;18.40;16.80;;;30.00;32.80;;;;;;5171921;28;20052;-73
2021/06/16 17:21:46;;;;;;;18.20;16.80;;;29.80;32.80;;;;;;5186346;28;20041;-72
2021/06/16 17:24:18;;;;;;;17.73;16.33;;;29.50;33.70;;;;;;5188760;28;20132;-72
2021/06/16 17:26:50;;;;;;;17.65;16.25;;;29.30;32.70;;;;;;5186356;28;20054;-73
2021/06/16 17:29:21;;;;;;;17.30;16.00;;;29.20;33.40;;;;;;5186763;28;20166;-73
2021/06/16 17:31:53;;;;;;;17.50;16.00;;;29.10;32.80;;;;;;5186165;28;20466;-72
2021/06/16 17:34:26;;;;;;;16.90;15.60;;;28.80;33.10;;;;;;5171789;28;20111;-72
2021/06/16 17:37:01;;;;;;;17.10;15.65;;;28.80;33.30;;;;;;5186656;28;20095;-72
2021/06/16 17:39:34;;;;;;;16.73;15.43;;;28.60;33.70;;;;;;5166493;28;20111;-72
2021/06/16 17:42:11;;;;;;;16.13;14.93;;;28.30;33.70;;;;;;5184550;28;20037;-72
2021/06/16 17:44:44;;;;;;;16.05;14.88;;;28.10;33.80;;;;;;5186365;28;20116;-72
2021/06/16 17:47:16;;;;;;;16.10;14.82;;;28.00;34.20;;;;;;5189913;28;20127;-73
2021/06/16 17:49:49;;;;;;;16.13;14.68;;;27.90;34.40;;;;;;5154465;28;20069;-73
2021/06/16 17:52:20;;;;;;;16.15;14.85;;;27.80;35.70;;;;;;5185445;28;20106;-72
2021/06/16 17:54:52;;;;;;;15.68;14.48;;;27.60;33.90;;;;;;5189164;28;20045;-72
2021/06/16 17:57:24;;;;;;;15.63;14.43;;;27.50;35.90;;;;;;5184182;28;20104;-72
2021/06/16 17:59:56;;;;;;;15.15;13.95;;;27.40;35.80;;;;;;5187364;28;20037;-71
2021/06/16 18:02:29;;;;;;;15.90;14.45;;;27.20;35.50;;;;;;5188761;28;20037;-71
2021/06/16 18:05:04;;;;;;;15.95;14.65;;;27.10;35.90;;;;;;5176440;28;20513;-72
2021/06/16 18:07:36;;;;;;;15.50;14.23;;;27.10;35.90;;;;;;5168584;28;20068;-71
2021/06/16 18:10:08;;;;;;;15.70;14.23;;;27.00;36.60;;;;;;5168854;28;20495;-72
2021/06/16 18:12:40;;;;;;;15.65;14.35;;;26.80;37.00;;;;;;5184964;28;20046;-72
2021/06/16 18:15:13;;;;;;;15.68;14.43;;;26.60;37.70;;;;;;5185507;28;20434;-71
2021/06/16 18:17:47;;;;;;;16.02;14.73;;;26.50;37.70;;;;;;5184807;28;20525;-72
2021/06/16 18:20:20;;;;;;;15.95;14.65;;;26.30;39.60;;;;;;5186051;28;20042;-72
2021/06/16 18:22:54;;;;;;;16.20;14.73;;;26.10;41.00;;;;;;5188763;28;20072;-72
2021/06/16 18:25:26;;;;;;;15.68;14.27;;;25.90;40.30;;;;;;5168064;28;20133;-72
2021/06/16 18:27:58;;;;;;;15.63;14.35;;;25.80;41.10;;;;;;5183991;28;20034;-71
2021/06/16 18:30:32;;;;;;;15.02;13.80;;;25.60;41.80;;;;;;5185207;28;20128;-72
2021/06/16 18:33:07;;;;;;;15.20;13.90;;;25.50;42.80;;;;;;5175562;28;20104;-71
2021/06/16 18:35:39;;;;;;;15.48;14.18;;;25.40;43.40;;;;;;5185959;28;20045;-71
2021/06/16 18:38:12;;;;;;;15.48;14.20;;;25.20;43.20;;;;;;5183748;28;20413;-71
2021/06/16 18:40:49;;;;;;;14.75;13.65;;;25.10;43.10;;;;;;5186304;28;20054;-71
2021/06/16 18:43:21;;;;;;;14.75;13.60;;;24.90;43.70;;;;;;5185054;28;20061;-70
2021/06/16 18:45:53;;;;;;;14.70;13.50;;;24.70;44.40;;;;;;5185156;28;20681;-72
2021/06/16 18:48:25;;;;;;;14.90;13.60;;;24.70;45.10;;;;;;5184058;28;20478;-71
2021/06/16 18:50:58;;;;;;;14.70;13.57;;;24.50;45.20;;;;;;5183936;28;20637;-71
2021/06/16 18:53:30;;;;;;;15.27;13.98;;;24.40;45.20;;;;;;5186070;28;20139;-71
2021/06/16 18:56:02;;;;;;;14.95;13.75;;;24.20;46.70;;;;;;5185799;28;20053;-71
2021/06/16 18:58:34;;;;;;;14.43;13.32;;;24.10;47.20;;;;;;5185786;28;20416;-71
2021/06/16 19:01:07;;;;;;;14.98;13.68;;;24.00;47.40;;;;;;5187210;28;20045;-70
2021/06/16 19:03:47;;;;;;;14.98;13.77;;;23.80;47.70;;;;;;5186531;28;20046;-71
2021/06/16 19:06:19;;;;;;;14.68;13.52;;;23.70;48.00;;;;;;5174170;28;20050;-71
2021/06/16 19:08:51;;;;;;;14.60;13.48;;;23.60;47.90;;;;;;5186039;28;20045;-71
2021/06/16 19:11:23;;;;;;;14.43;13.13;;;23.50;48.50;;;;;;5184317;28;20138;-71
2021/06/16 19:13:55;;;;;;;14.43;13.32;;;23.40;48.90;;;;;;5186260;28;20065;-70